createdAt,value
2022-12-23T09:20:50.827Z,84
2022-12-23T09:22:50.245Z,100.0
2022-12-23T09:24:51.087Z,100.0
2022-12-23T09:26:50.577Z,84
2022-12-23T09:28:50.431Z,84
2022-12-23T09:30:50.467Z,84
2022-12-23T09:32:50.144Z,84
2022-12-23T09:34:50.560Z,84
2022-12-23T09:36:56.217Z,84
2022-12-23T09:38:50.962Z,84
2022-12-23T09:40:50.655Z,84
2022-12-23T09:42:50.455Z,84
2022-12-23T09:44:50.273Z,84
2022-12-23T09:46:50.633Z,84
2022-12-23T09:48:50.416Z,84
2022-12-23T09:50:51.081Z,84
2022-12-23T09:52:50.734Z,84
2022-12-23T09:54:50.271Z,83
2022-12-23T09:56:50.331Z,83
2022-12-23T09:58:50.130Z,83
2022-12-23T10:00:50.986Z,83
2022-12-23T10:02:51.994Z,83
2022-12-23T10:04:50.380Z,84
2022-12-23T10:06:50.358Z,84
2022-12-23T10:08:51.008Z,84
2022-12-23T10:10:50.737Z,83
2022-12-23T10:12:50.485Z,83
2022-12-23T10:14:50.183Z,83
2022-12-23T10:16:50.160Z,84
2022-12-23T10:18:50.802Z,84
2022-12-23T10:20:50.471Z,83
2022-12-23T10:22:51.051Z,83
2022-12-23T10:24:50.827Z,83
2022-12-23T10:26:50.670Z,83
2022-12-23T10:28:50.272Z,83
2022-12-23T10:31:40.079Z,83
2022-12-23T10:32:51.248Z,83
2022-12-23T10:34:50.340Z,83
2022-12-23T10:36:50.910Z,84
2022-12-23T10:38:50.714Z,84
2022-12-23T10:40:50.477Z,84
2022-12-23T10:42:50.157Z,84
2022-12-23T10:44:50.904Z,84
2022-12-23T10:46:51.254Z,84
2022-12-23T10:48:50.987Z,84
2022-12-23T10:50:50.630Z,84
2022-12-23T10:52:50.457Z,84
2022-12-23T10:54:52.159Z,84
2022-12-23T10:56:51.053Z,84
2022-12-23T10:58:50.936Z,84
2022-12-23T11:00:51.176Z,84
2022-12-23T11:02:52.683Z,84
2022-12-23T11:04:50.759Z,84
2022-12-23T11:07:44.906Z,84
2022-12-23T11:08:50.398Z,84
2022-12-23T11:10:50.956Z,84
2022-12-23T11:12:50.643Z,84
2022-12-23T11:14:50.392Z,84
2022-12-23T11:16:50.796Z,84
2022-12-23T11:18:50.415Z,84
2022-12-23T11:20:50.238Z,84
2022-12-23T11:22:50.881Z,84
2022-12-23T11:24:50.642Z,84
2022-12-23T11:26:50.693Z,84
2022-12-23T11:28:50.315Z,84
2022-12-23T11:30:57.609Z,84
2022-12-23T11:32:50.312Z,84
2022-12-23T11:34:50.581Z,84
2022-12-23T11:37:08.010Z,84
2022-12-23T11:38:51.083Z,84
2022-12-23T11:40:50.619Z,84
2022-12-23T11:42:55.924Z,84
2022-12-23T11:44:50.676Z,84
2022-12-23T11:46:50.672Z,84
2022-12-23T11:48:55.460Z,84
2022-12-23T11:50:51.092Z,84
2022-12-23T11:52:50.699Z,84
2022-12-23T11:54:55.300Z,84
2022-12-23T11:56:50.524Z,84
2022-12-23T11:58:50.352Z,84
2022-12-23T12:00:56.834Z,84
2022-12-23T12:02:51.081Z,84
2022-12-23T12:04:50.184Z,84
2022-12-23T12:06:57.288Z,84
2022-12-23T12:08:50.838Z,84
2022-12-23T12:10:50.626Z,84
2022-12-23T12:12:55.609Z,84
2022-12-23T12:14:50.466Z,84
2022-12-23T12:16:50.831Z,84
2022-12-23T12:18:56.517Z,84
2022-12-23T12:20:50.338Z,84
2022-12-23T12:22:50.889Z,84
2022-12-23T12:24:50.555Z,84
2022-12-23T12:26:50.600Z,84
2022-12-23T12:28:50.227Z,84
2022-12-23T12:30:51.131Z,84
2022-12-23T12:32:50.772Z,84
2022-12-23T12:34:51.033Z,84
2022-12-23T12:36:51.419Z,84
2022-12-23T12:38:50.320Z,84
2022-12-23T12:40:51.132Z,84
2022-12-23T12:42:50.857Z,84
2022-12-23T12:44:50.473Z,84
2022-12-23T12:46:50.540Z,84
2022-12-23T12:48:50.117Z,84
2022-12-23T12:50:50.688Z,84
2022-12-23T12:52:50.405Z,84
2022-12-23T12:54:50.957Z,84
2022-12-23T12:56:50.999Z,84
2022-12-23T12:58:50.788Z,84
2022-12-23T13:00:50.415Z,84
2022-12-23T13:02:51.383Z,84
2022-12-23T13:04:50.641Z,84
2022-12-23T13:06:50.630Z,84
2022-12-23T13:08:50.276Z,84
2022-12-23T13:10:50.841Z,84
2022-12-23T13:12:50.899Z,84
2022-12-23T13:14:50.531Z,84
2022-12-23T13:16:50.858Z,84
2022-12-23T13:18:51.352Z,84
2022-12-23T13:20:50.971Z,84
2022-12-23T13:22:50.632Z,84
2022-12-23T13:24:50.194Z,84
2022-12-23T13:26:50.414Z,84
2022-12-23T13:28:50.972Z,84
2022-12-23T13:30:51.214Z,84
2022-12-23T13:32:50.828Z,84
2022-12-23T13:34:50.885Z,84
2022-12-23T13:36:51.452Z,84
2022-12-23T13:38:50.326Z,84
2022-12-23T13:40:50.849Z,84
2022-12-23T13:42:50.536Z,84
2022-12-23T13:44:50.329Z,84
2022-12-23T13:46:50.775Z,84
2022-12-23T13:48:50.597Z,84
2022-12-23T13:50:50.185Z,84
2022-12-23T13:52:51.008Z,84
2022-12-23T13:54:50.599Z,84
2022-12-23T13:56:50.692Z,84
2022-12-23T13:58:50.228Z,84
2022-12-23T14:00:50.874Z,84
2022-12-23T14:02:51.156Z,84
2022-12-23T14:04:50.252Z,84
2022-12-23T14:06:50.264Z,84
2022-12-23T14:08:50.930Z,84
2022-12-23T14:10:50.723Z,84
2022-12-23T14:12:50.303Z,84
2022-12-23T14:14:50.169Z,84
2022-12-23T14:16:50.158Z,84
2022-12-23T14:18:50.789Z,84
2022-12-23T14:20:50.531Z,84
2022-12-23T14:22:50.182Z,84
2022-12-23T14:24:51.028Z,84
2022-12-23T14:26:50.997Z,84
2022-12-23T14:28:50.619Z,84
2022-12-23T14:30:50.709Z,84
2022-12-23T14:32:50.476Z,84
2022-12-23T14:34:50.654Z,84
2022-12-23T14:36:50.935Z,84
2022-12-23T14:38:50.480Z,84
2022-12-23T14:40:50.184Z,84
2022-12-23T14:42:50.752Z,85
2022-12-23T14:44:50.518Z,85
2022-12-23T14:46:50.945Z,85
2022-12-23T14:49:38.697Z,85
2022-12-23T14:50:50.804Z,85
2022-12-23T14:52:50.534Z,85
2022-12-23T14:55:31.151Z,85
2022-12-23T14:56:50.754Z,85
2022-12-23T14:58:50.488Z,85
2022-12-23T15:00:51.191Z,85
2022-12-23T15:02:51.136Z,85
2022-12-23T15:04:50.337Z,85
2022-12-23T15:06:50.289Z,85
2022-12-23T15:08:50.155Z,85
2022-12-23T15:10:50.920Z,85
2022-12-23T15:12:50.778Z,85
2022-12-23T15:14:50.422Z,85
2022-12-23T15:16:50.954Z,85
2022-12-23T15:18:50.627Z,85
2022-12-23T15:20:50.241Z,85
2022-12-23T15:22:51.117Z,85
2022-12-23T15:24:50.700Z,85
2022-12-23T15:27:29.932Z,85
2022-12-23T15:28:50.470Z,85
2022-12-23T15:30:50.927Z,85
2022-12-23T15:32:50.493Z,85
2022-12-23T15:34:50.523Z,85
2022-12-23T15:36:50.884Z,85
2022-12-23T15:38:50.758Z,85
2022-12-23T15:40:50.341Z,85
2022-12-23T15:42:51.026Z,85
2022-12-23T15:44:50.608Z,85
2022-12-23T15:46:50.996Z,85
2022-12-23T15:48:50.584Z,85
2022-12-23T15:50:50.251Z,85
2022-12-23T15:52:51.064Z,85
2022-12-23T15:54:50.839Z,85
2022-12-23T15:56:50.915Z,85
2022-12-23T15:58:50.495Z,85
2022-12-23T16:00:50.103Z,85
2022-12-23T16:03:15.579Z,85
2022-12-23T16:04:50.965Z,86
2022-12-23T16:06:50.979Z,86
2022-12-23T16:08:50.767Z,86
2022-12-23T16:10:50.359Z,86
2022-12-23T16:12:50.232Z,86
2022-12-23T16:14:50.799Z,86
2022-12-23T16:16:51.379Z,86
2022-12-23T16:18:50.291Z,86
2022-12-23T16:20:51.053Z,86
2022-12-23T16:22:50.731Z,86
2022-12-23T16:24:50.485Z,86
2022-12-23T16:26:50.487Z,86
2022-12-23T16:28:50.154Z,86
2022-12-23T16:30:50.739Z,86
2022-12-23T16:32:50.476Z,86
2022-12-23T16:34:50.818Z,86
2022-12-23T16:36:51.507Z,86
2022-12-23T16:38:50.231Z,86
2022-12-23T16:40:50.873Z,86
2022-12-23T16:42:50.473Z,86
2022-12-23T16:44:50.294Z,86
2022-12-23T16:46:50.503Z,86
2022-12-23T16:48:50.315Z,86
2022-12-23T16:50:50.852Z,86
2022-12-23T16:52:50.511Z,86
2022-12-23T16:54:51.138Z,86
2022-12-23T16:56:50.170Z,86
2022-12-23T16:58:50.969Z,86
2022-12-23T17:00:50.961Z,86
2022-12-23T17:02:51.110Z,86
2022-12-23T17:04:50.400Z,86
2022-12-23T17:06:50.399Z,86
2022-12-23T17:08:51.003Z,86
2022-12-23T17:10:50.602Z,86
2022-12-23T17:12:50.225Z,86
2022-12-23T17:14:51.007Z,86
2022-12-23T17:16:51.727Z,86
2022-12-23T17:18:50.559Z,86
2022-12-23T17:20:50.515Z,86
2022-12-23T17:22:50.318Z,86
2022-12-23T17:24:50.111Z,86
2022-12-23T17:26:50.150Z,86
2022-12-23T17:28:50.732Z,86
2022-12-23T17:30:50.568Z,86
2022-12-23T17:32:50.146Z,86
2022-12-23T17:34:50.201Z,86
2022-12-23T17:36:53.595Z,86
2022-12-23T17:38:50.433Z,86
2022-12-23T17:40:50.269Z,86
2022-12-23T17:42:51.033Z,86
2022-12-23T17:44:50.831Z,86
2022-12-23T17:46:50.686Z,86
2022-12-23T17:48:50.324Z,86
2022-12-23T17:50:50.169Z,86
2022-12-23T17:52:50.734Z,86
2022-12-23T17:54:50.562Z,86
2022-12-23T17:56:50.568Z,86
2022-12-23T17:58:50.167Z,86
2022-12-23T18:00:51.337Z,86
2022-12-23T18:02:51.330Z,86
2022-12-23T18:04:50.424Z,86
2022-12-23T18:06:50.445Z,86
2022-12-23T18:08:50.230Z,87
2022-12-23T18:10:51.113Z,87
2022-12-23T18:12:50.882Z,87
2022-12-23T18:14:50.475Z,87
2022-12-23T18:16:51.118Z,87
2022-12-23T18:18:50.919Z,87
2022-12-23T18:20:50.589Z,87
2022-12-23T18:22:50.839Z,87
2022-12-23T18:25:00.302Z,87
2022-12-23T18:26:50.148Z,87
2022-12-23T18:28:50.977Z,87
2022-12-23T18:30:51.015Z,87
2022-12-23T18:32:50.850Z,87
2022-12-23T18:34:50.915Z,87
2022-12-23T18:36:51.359Z,87
2022-12-23T18:38:50.265Z,87
2022-12-23T18:40:50.855Z,87
2022-12-23T18:42:50.484Z,87
2022-12-23T18:44:50.105Z,87
2022-12-23T18:46:51.042Z,87
2022-12-23T18:48:50.702Z,87
2022-12-23T18:50:50.374Z,87
2022-12-23T18:52:51.003Z,87
2022-12-23T18:54:50.784Z,87
2022-12-23T18:56:50.790Z,87
2022-12-23T18:58:50.438Z,87
2022-12-23T19:00:51.075Z,87
2022-12-23T19:02:51.285Z,87
2022-12-23T19:04:50.637Z,87
2022-12-23T19:06:50.467Z,87
2022-12-23T19:08:51.081Z,87
2022-12-23T19:10:50.714Z,87
2022-12-23T19:12:50.566Z,87
2022-12-23T19:14:50.105Z,87
2022-12-23T19:16:53.474Z,87
2022-12-23T19:18:50.364Z,86
2022-12-23T19:20:51.051Z,86
2022-12-23T19:22:50.725Z,86
2022-12-23T19:25:07.261Z,86
2022-12-23T19:26:50.595Z,86
2022-12-23T19:28:50.496Z,86
2022-12-23T19:30:50.843Z,86
2022-12-23T19:32:50.624Z,86
2022-12-23T19:34:50.856Z,85
2022-12-23T19:36:51.366Z,85
2022-12-23T19:38:51.176Z,85
2022-12-23T19:40:50.898Z,85
2022-12-23T19:42:50.528Z,85
2022-12-23T19:44:50.115Z,85
2022-12-23T19:46:50.630Z,84
2022-12-23T19:48:50.433Z,84
2022-12-23T19:50:50.348Z,84
2022-12-23T19:52:51.108Z,84
2022-12-23T19:54:50.810Z,84
2022-12-23T19:56:50.877Z,84
2022-12-23T19:58:50.456Z,84
2022-12-23T20:00:50.304Z,84
2022-12-23T20:03:00.111Z,84
2022-12-23T20:04:50.493Z,84
2022-12-23T20:06:50.513Z,84
2022-12-23T20:09:01.729Z,84
2022-12-23T20:10:50.121Z,84
2022-12-23T20:12:50.716Z,84
2022-12-23T20:14:50.373Z,84
2022-12-23T20:16:50.375Z,84
2022-12-23T20:18:50.211Z,84
2022-12-23T20:20:50.954Z,84
2022-12-23T20:22:50.619Z,85
2022-12-23T20:24:50.418Z,85
2022-12-23T20:26:50.467Z,84
2022-12-23T20:28:51.109Z,84
2022-12-23T20:30:51.025Z,85
2022-12-23T20:32:50.646Z,85
2022-12-23T20:34:50.979Z,85
2022-12-23T20:36:50.630Z,85
2022-12-23T20:38:50.385Z,85
2022-12-23T20:40:50.239Z,85
2022-12-23T20:42:50.985Z,85
2022-12-23T20:44:50.748Z,85
2022-12-23T20:46:51.132Z,85
2022-12-23T20:48:50.795Z,85
2022-12-23T20:50:50.492Z,85
2022-12-23T20:52:50.990Z,85
2022-12-23T20:54:50.840Z,85
2022-12-23T20:56:50.886Z,85
2022-12-23T20:58:50.726Z,85
2022-12-23T21:00:50.309Z,85
2022-12-23T21:02:51.271Z,85
2022-12-23T21:04:50.642Z,85
2022-12-23T21:06:50.580Z,85
2022-12-23T21:08:50.369Z,85
2022-12-23T21:10:50.965Z,85
2022-12-23T21:12:50.856Z,85
2022-12-23T21:14:50.597Z,85
2022-12-23T21:16:51.086Z,85
2022-12-23T21:18:50.866Z,85
2022-12-23T21:20:50.451Z,85
2022-12-23T21:22:50.225Z,84
2022-12-23T21:24:50.809Z,84
2022-12-23T21:26:57.732Z,84
2022-12-23T21:28:50.515Z,84
2022-12-23T21:30:51.116Z,84
2022-12-23T21:32:50.722Z,84
2022-12-23T21:34:50.930Z,84
2022-12-23T21:36:51.471Z,83
2022-12-23T21:38:50.232Z,83
2022-12-23T21:40:50.949Z,83
2022-12-23T21:42:50.640Z,83
2022-12-23T21:44:50.377Z,83
2022-12-23T21:46:50.946Z,82
2022-12-23T21:48:50.686Z,82
2022-12-23T21:50:50.317Z,82
2022-12-23T21:52:51.057Z,82
2022-12-23T21:54:50.686Z,82
2022-12-23T21:56:50.567Z,82
2022-12-23T21:58:50.340Z,82
2022-12-23T22:00:50.446Z,82
2022-12-23T22:02:50.096Z,82
2022-12-23T22:04:50.391Z,81
2022-12-23T22:06:50.370Z,80
2022-12-23T22:08:51.026Z,79
2022-12-23T22:10:50.781Z,79
2022-12-23T22:12:50.413Z,78
2022-12-23T22:14:51.029Z,78
2022-12-23T22:16:51.391Z,77
2022-12-23T22:18:51.086Z,77
2022-12-23T22:20:50.897Z,77
2022-12-23T22:22:50.508Z,77
2022-12-23T22:24:51.077Z,77
2022-12-23T22:26:50.110Z,77
2022-12-23T22:28:50.711Z,77
2022-12-23T22:30:50.576Z,77
2022-12-23T22:32:50.358Z,77
2022-12-23T22:34:50.387Z,77
2022-12-23T22:36:51.493Z,76
2022-12-23T22:38:50.386Z,76
2022-12-23T22:40:51.035Z,76
2022-12-23T22:42:50.617Z,77
2022-12-23T22:44:50.787Z,76
2022-12-23T22:46:51.581Z,76
2022-12-23T22:48:50.248Z,77
2022-12-23T22:50:50.856Z,77
2022-12-23T22:52:50.520Z,76
2022-12-23T22:54:50.109Z,77
2022-12-23T22:56:50.100Z,77
2022-12-23T22:58:50.991Z,77
2022-12-23T23:00:50.732Z,77
2022-12-23T23:02:50.410Z,77
2022-12-23T23:04:50.625Z,78
2022-12-23T23:06:50.636Z,77
2022-12-23T23:08:50.227Z,77
2022-12-23T23:10:51.040Z,78
2022-12-23T23:12:50.670Z,78
2022-12-23T23:14:50.278Z,78
2022-12-23T23:16:50.838Z,78
2022-12-23T23:18:50.554Z,78
2022-12-23T23:20:50.344Z,78
2022-12-23T23:22:50.163Z,78
2022-12-23T23:24:50.930Z,78
2022-12-23T23:26:50.989Z,78
2022-12-23T23:28:50.759Z,78
2022-12-23T23:31:43.771Z,78
2022-12-23T23:32:50.481Z,78
2022-12-23T23:34:50.429Z,78
2022-12-23T23:36:51.033Z,78
2022-12-23T23:38:50.813Z,78
2022-12-23T23:40:50.497Z,79
2022-12-23T23:42:50.453Z,79
2022-12-23T23:44:50.274Z,79
2022-12-23T23:46:50.285Z,79
2022-12-23T23:48:50.990Z,79
2022-12-23T23:50:50.737Z,79
2022-12-23T23:52:50.706Z,79
2022-12-23T23:54:50.339Z,79
2022-12-23T23:56:50.404Z,79
2022-12-23T23:58:50.165Z,79
